sensor_id;sensor_type;location;lat;lon;timestamp;P1;durP1;ratioP1;P2;durP2;ratioP2
21260;SDS011;10788;47.930;9.766;2022-08-21T00:01:03;0.00;;;0.00;;
21260;SDS011;10788;47.930;9.766;2022-08-21T00:03:34;0.00;;;0.00;;
21260;SDS011;10788;47.930;9.766;2022-08-21T00:06:01;0.00;;;0.00;;
21260;SDS011;10788;47.930;9.766;2022-08-21T00:08:27;0.00;;;0.00;;
21260;SDS011;10788;47.930;9.766;2022-08-21T00:10:52;0.00;;;0.00;;
21260;SDS011;10788;47.930;9.766;2022-08-21T00:13:18;0.00;;;0.00;;
21260;SDS011;10788;47.930;9.766;2022-08-21T00:15:45;0.00;;;0.00;;
21260;SDS011;10788;47.930;9.766;2022-08-21T00:18:11;0.00;;;0.00;;
21260;SDS011;10788;47.930;9.766;2022-08-21T00:20:38;0.00;;;0.00;;
21260;SDS011;10788;47.930;9.766;2022-08-21T00:23:06;0.00;;;0.00;;
21260;SDS011;10788;47.930;9.766;2022-08-21T00:25:32;0.00;;;0.00;;
21260;SDS011;10788;47.930;9.766;2022-08-21T00:27:58;0.00;;;0.00;;
21260;SDS011;10788;47.930;9.766;2022-08-21T00:30:24;0.10;;;0.10;;
21260;SDS011;10788;47.930;9.766;2022-08-21T00:32:51;0.00;;;0.00;;
21260;SDS011;10788;47.930;9.766;2022-08-21T00:35:19;0.00;;;0.00;;
21260;SDS011;10788;47.930;9.766;2022-08-21T00:37:47;0.00;;;0.00;;
21260;SDS011;10788;47.930;9.766;2022-08-21T00:40:14;0.00;;;0.00;;
21260;SDS011;10788;47.930;9.766;2022-08-21T00:42:43;0.00;;;0.00;;
21260;SDS011;10788;47.930;9.766;2022-08-21T00:45:09;0.00;;;0.00;;
21260;SDS011;10788;47.930;9.766;2022-08-21T00:47:36;0.00;;;0.00;;
21260;SDS011;10788;47.930;9.766;2022-08-21T00:50:03;0.00;;;0.00;;
21260;SDS011;10788;47.930;9.766;2022-08-21T00:52:30;0.00;;;0.00;;
21260;SDS011;10788;47.930;9.766;2022-08-21T00:54:59;0.00;;;0.00;;
21260;SDS011;10788;47.930;9.766;2022-08-21T00:57:26;0.00;;;0.00;;
21260;SDS011;10788;47.930;9.766;2022-08-21T01:00:00;0.07;;;0.07;;
21260;SDS011;10788;47.930;9.766;2022-08-21T01:02:29;0.00;;;0.00;;
21260;SDS011;10788;47.930;9.766;2022-08-21T01:04:54;0.00;;;0.00;;
21260;SDS011;10788;47.930;9.766;2022-08-21T01:07:20;0.00;;;0.00;;
21260;SDS011;10788;47.930;9.766;2022-08-21T01:09:46;0.00;;;0.00;;
21260;SDS011;10788;47.930;9.766;2022-08-21T01:12:13;0.00;;;0.00;;
21260;SDS011;10788;47.930;9.766;2022-08-21T01:14:40;0.00;;;0.00;;
21260;SDS011;10788;47.930;9.766;2022-08-21T01:17:07;0.00;;;0.00;;
21260;SDS011;10788;47.930;9.766;2022-08-21T01:19:35;0.00;;;0.00;;
21260;SDS011;10788;47.930;9.766;2022-08-21T01:22:01;0.00;;;0.00;;
21260;SDS011;10788;47.930;9.766;2022-08-21T01:24:27;0.00;;;0.00;;
21260;SDS011;10788;47.930;9.766;2022-08-21T01:26:53;0.03;;;0.03;;
21260;SDS011;10788;47.930;9.766;2022-08-21T01:29:32;0.00;;;0.00;;
21260;SDS011;10788;47.930;9.766;2022-08-21T01:32:16;0.00;;;0.00;;
21260;SDS011;10788;47.930;9.766;2022-08-21T01:34:44;0.00;;;0.00;;
21260;SDS011;10788;47.930;9.766;2022-08-21T01:37:12;0.10;;;0.10;;
21260;SDS011;10788;47.930;9.766;2022-08-21T01:39:40;0.00;;;0.00;;
21260;SDS011;10788;47.930;9.766;2022-08-21T01:42:06;0.00;;;0.00;;
21260;SDS011;10788;47.930;9.766;2022-08-21T01:44:33;0.00;;;0.00;;
21260;SDS011;10788;47.930;9.766;2022-08-21T01:47:00;0.00;;;0.00;;
21260;SDS011;10788;47.930;9.766;2022-08-21T01:49:28;0.00;;;0.00;;
21260;SDS011;10788;47.930;9.766;2022-08-21T01:51:53;0.00;;;0.00;;
21260;SDS011;10788;47.930;9.766;2022-08-21T01:54:19;0.00;;;0.00;;
21260;SDS011;10788;47.930;9.766;2022-08-21T01:56:46;0.00;;;0.00;;
21260;SDS011;10788;47.930;9.766;2022-08-21T01:59:14;0.00;;;0.00;;
21260;SDS011;10788;47.930;9.766;2022-08-21T02:01:40;0.00;;;0.00;;
21260;SDS011;10788;47.930;9.766;2022-08-21T02:04:07;0.00;;;0.00;;
21260;SDS011;10788;47.930;9.766;2022-08-21T02:06:34;0.00;;;0.00;;
21260;SDS011;10788;47.930;9.766;2022-08-21T02:09:01;0.10;;;0.10;;
21260;SDS011;10788;47.930;9.766;2022-08-21T02:11:30;0.00;;;0.00;;
21260;SDS011;10788;47.930;9.766;2022-08-21T02:13:56;0.00;;;0.00;;
21260;SDS011;10788;47.930;9.766;2022-08-21T02:16:22;0.00;;;0.00;;
21260;SDS011;10788;47.930;9.766;2022-08-21T02:18:48;0.00;;;0.00;;
21260;SDS011;10788;47.930;9.766;2022-08-21T02:21:14;0.00;;;0.00;;
21260;SDS011;10788;47.930;9.766;2022-08-21T02:23:39;0.00;;;0.00;;
21260;SDS011;10788;47.930;9.766;2022-08-21T02:26:06;0.00;;;0.00;;
21260;SDS011;10788;47.930;9.766;2022-08-21T02:28:32;0.00;;;0.00;;
21260;SDS011;10788;47.930;9.766;2022-08-21T02:30:58;0.00;;;0.00;;
21260;SDS011;10788;47.930;9.766;2022-08-21T02:33:24;0.00;;;0.00;;
21260;SDS011;10788;47.930;9.766;2022-08-21T02:35:51;0.00;;;0.00;;
21260;SDS011;10788;47.930;9.766;2022-08-21T02:38:19;0.00;;;0.00;;
21260;SDS011;10788;47.930;9.766;2022-08-21T02:40:47;0.00;;;0.00;;
21260;SDS011;10788;47.930;9.766;2022-08-21T02:43:15;0.00;;;0.00;;
21260;SDS011;10788;47.930;9.766;2022-08-21T02:45:41;0.00;;;0.00;;
21260;SDS011;10788;47.930;9.766;2022-08-21T02:48:09;0.00;;;0.00;;
21260;SDS011;10788;47.930;9.766;2022-08-21T02:50:39;0.00;;;0.00;;
21260;SDS011;10788;47.930;9.766;2022-08-21T02:53:11;0.00;;;0.00;;
21260;SDS011;10788;47.930;9.766;2022-08-21T02:55:39;0.00;;;0.00;;
21260;SDS011;10788;47.930;9.766;2022-08-21T02:58:05;0.00;;;0.00;;
21260;SDS011;10788;47.930;9.766;2022-08-21T03:00:32;0.00;;;0.00;;
21260;SDS011;10788;47.930;9.766;2022-08-21T03:03:00;0.00;;;0.00;;
21260;SDS011;10788;47.930;9.766;2022-08-21T03:05:26;0.00;;;0.00;;
21260;SDS011;10788;47.930;9.766;2022-08-21T03:07:54;0.00;;;0.00;;
21260;SDS011;10788;47.930;9.766;2022-08-21T03:10:20;0.00;;;0.00;;
21260;SDS011;10788;47.930;9.766;2022-08-21T03:12:47;0.00;;;0.00;;
21260;SDS011;10788;47.930;9.766;2022-08-21T03:15:14;0.00;;;0.00;;
21260;SDS011;10788;47.930;9.766;2022-08-21T03:17:42;0.00;;;0.00;;
21260;SDS011;10788;47.930;9.766;2022-08-21T03:20:08;0.00;;;0.00;;
21260;SDS011;10788;47.930;9.766;2022-08-21T03:22:36;0.00;;;0.00;;
21260;SDS011;10788;47.930;9.766;2022-08-21T03:25:02;0.00;;;0.00;;
21260;SDS011;10788;47.930;9.766;2022-08-21T03:27:28;0.00;;;0.00;;
21260;SDS011;10788;47.930;9.766;2022-08-21T03:29:56;0.00;;;0.00;;
21260;SDS011;10788;47.930;9.766;2022-08-21T03:32:22;0.00;;;0.00;;
21260;SDS011;10788;47.930;9.766;2022-08-21T03:34:48;0.00;;;0.00;;
21260;SDS011;10788;47.930;9.766;2022-08-21T03:37:13;0.00;;;0.00;;
21260;SDS011;10788;47.930;9.766;2022-08-21T03:39:40;0.00;;;0.00;;
21260;SDS011;10788;47.930;9.766;2022-08-21T03:42:06;0.00;;;0.00;;
21260;SDS011;10788;47.930;9.766;2022-08-21T03:44:33;0.00;;;0.00;;
21260;SDS011;10788;47.930;9.766;2022-08-21T03:46:59;0.00;;;0.00;;
21260;SDS011;10788;47.930;9.766;2022-08-21T03:49:25;0.00;;;0.00;;
21260;SDS011;10788;47.930;9.766;2022-08-21T03:51:51;0.00;;;0.00;;
21260;SDS011;10788;47.930;9.766;2022-08-21T03:54:16;0.00;;;0.00;;
21260;SDS011;10788;47.930;9.766;2022-08-21T03:56:42;0.00;;;0.00;;
21260;SDS011;10788;47.930;9.766;2022-08-21T03:59:08;0.00;;;0.00;;
21260;SDS011;10788;47.930;9.766;2022-08-21T04:01:34;0.00;;;0.00;;
21260;SDS011;10788;47.930;9.766;2022-08-21T04:04:01;0.00;;;0.00;;
21260;SDS011;10788;47.930;9.766;2022-08-21T04:06:27;0.00;;;0.00;;
21260;SDS011;10788;47.930;9.766;2022-08-21T04:08:53;0.00;;;0.00;;
21260;SDS011;10788;47.930;9.766;2022-08-21T04:11:19;0.00;;;0.00;;
21260;SDS011;10788;47.930;9.766;2022-08-21T04:13:45;0.00;;;0.00;;
21260;SDS011;10788;47.930;9.766;2022-08-21T04:16:12;0.00;;;0.00;;
21260;SDS011;10788;47.930;9.766;2022-08-21T04:18:38;0.00;;;0.00;;
21260;SDS011;10788;47.930;9.766;2022-08-21T04:21:03;0.00;;;0.00;;
21260;SDS011;10788;47.930;9.766;2022-08-21T04:23:30;0.00;;;0.00;;
21260;SDS011;10788;47.930;9.766;2022-08-21T04:25:56;0.00;;;0.00;;
21260;SDS011;10788;47.930;9.766;2022-08-21T04:28:22;0.00;;;0.00;;
21260;SDS011;10788;47.930;9.766;2022-08-21T04:30:50;0.00;;;0.00;;
21260;SDS011;10788;47.930;9.766;2022-08-21T04:33:16;0.00;;;0.00;;
21260;SDS011;10788;47.930;9.766;2022-08-21T04:35:42;0.00;;;0.00;;
21260;SDS011;10788;47.930;9.766;2022-08-21T04:38:09;0.00;;;0.00;;
21260;SDS011;10788;47.930;9.766;2022-08-21T04:40:35;0.00;;;0.00;;
21260;SDS011;10788;47.930;9.766;2022-08-21T04:43:02;0.00;;;0.00;;
21260;SDS011;10788;47.930;9.766;2022-08-21T04:45:48;0.00;;;0.00;;
21260;SDS011;10788;47.930;9.766;2022-08-21T04:48:15;0.00;;;0.00;;
21260;SDS011;10788;47.930;9.766;2022-08-21T04:53:47;0.00;;;0.00;;
21260;SDS011;10788;47.930;9.766;2022-08-21T04:56:14;0.00;;;0.00;;
21260;SDS011;10788;47.930;9.766;2022-08-21T04:58:45;0.00;;;0.00;;
21260;SDS011;10788;47.930;9.766;2022-08-21T05:01:20;0.00;;;0.00;;
21260;SDS011;10788;47.930;9.766;2022-08-21T05:03:49;0.00;;;0.00;;
21260;SDS011;10788;47.930;9.766;2022-08-21T05:06:18;0.00;;;0.00;;
21260;SDS011;10788;47.930;9.766;2022-08-21T05:08:45;0.00;;;0.00;;
21260;SDS011;10788;47.930;9.766;2022-08-21T05:11:13;0.00;;;0.00;;
21260;SDS011;10788;47.930;9.766;2022-08-21T05:13:39;0.00;;;0.00;;
21260;SDS011;10788;47.930;9.766;2022-08-21T05:16:08;0.00;;;0.00;;
21260;SDS011;10788;47.930;9.766;2022-08-21T05:18:34;0.00;;;0.00;;
21260;SDS011;10788;47.930;9.766;2022-08-21T05:21:00;0.00;;;0.00;;
21260;SDS011;10788;47.930;9.766;2022-08-21T05:23:28;0.00;;;0.00;;
21260;SDS011;10788;47.930;9.766;2022-08-21T05:25:53;0.00;;;0.00;;
21260;SDS011;10788;47.930;9.766;2022-08-21T05:28:20;0.00;;;0.00;;
21260;SDS011;10788;47.930;9.766;2022-08-21T05:30:46;0.00;;;0.00;;
21260;SDS011;10788;47.930;9.766;2022-08-21T05:33:12;0.00;;;0.00;;
21260;SDS011;10788;47.930;9.766;2022-08-21T05:35:38;0.00;;;0.00;;
21260;SDS011;10788;47.930;9.766;2022-08-21T05:38:04;0.00;;;0.00;;
21260;SDS011;10788;47.930;9.766;2022-08-21T05:40:30;0.00;;;0.00;;
21260;SDS011;10788;47.930;9.766;2022-08-21T05:42:56;0.00;;;0.00;;
21260;SDS011;10788;47.930;9.766;2022-08-21T05:45:25;0.00;;;0.00;;
21260;SDS011;10788;47.930;9.766;2022-08-21T05:47:53;0.00;;;0.00;;
21260;SDS011;10788;47.930;9.766;2022-08-21T05:50:19;0.00;;;0.00;;
21260;SDS011;10788;47.930;9.766;2022-08-21T05:52:44;0.00;;;0.00;;
21260;SDS011;10788;47.930;9.766;2022-08-21T05:55:10;0.00;;;0.00;;
21260;SDS011;10788;47.930;9.766;2022-08-21T05:57:36;0.00;;;0.00;;
21260;SDS011;10788;47.930;9.766;2022-08-21T06:00:02;0.00;;;0.00;;
21260;SDS011;10788;47.930;9.766;2022-08-21T06:02:28;0.00;;;0.00;;
21260;SDS011;10788;47.930;9.766;2022-08-21T06:04:56;0.00;;;0.00;;
21260;SDS011;10788;47.930;9.766;2022-08-21T06:07:22;0.00;;;0.00;;
21260;SDS011;10788;47.930;9.766;2022-08-21T06:09:47;0.00;;;0.00;;
21260;SDS011;10788;47.930;9.766;2022-08-21T06:12:13;0.00;;;0.00;;
21260;SDS011;10788;47.930;9.766;2022-08-21T06:14:39;0.00;;;0.00;;
21260;SDS011;10788;47.930;9.766;2022-08-21T06:17:08;0.00;;;0.00;;
21260;SDS011;10788;47.930;9.766;2022-08-21T06:19:35;0.00;;;0.00;;
21260;SDS011;10788;47.930;9.766;2022-08-21T06:22:01;0.00;;;0.00;;
21260;SDS011;10788;47.930;9.766;2022-08-21T06:24:27;0.00;;;0.00;;
21260;SDS011;10788;47.930;9.766;2022-08-21T06:26:53;0.00;;;0.00;;
21260;SDS011;10788;47.930;9.766;2022-08-21T06:29:19;0.00;;;0.00;;
21260;SDS011;10788;47.930;9.766;2022-08-21T06:31:47;0.00;;;0.00;;
21260;SDS011;10788;47.930;9.766;2022-08-21T06:34:13;0.00;;;0.00;;
21260;SDS011;10788;47.930;9.766;2022-08-21T06:36:39;0.00;;;0.00;;
21260;SDS011;10788;47.930;9.766;2022-08-21T06:39:05;0.00;;;0.00;;
21260;SDS011;10788;47.930;9.766;2022-08-21T06:41:31;0.00;;;0.00;;
21260;SDS011;10788;47.930;9.766;2022-08-21T06:43:57;0.00;;;0.00;;
21260;SDS011;10788;47.930;9.766;2022-08-21T06:46:24;0.00;;;0.00;;
21260;SDS011;10788;47.930;9.766;2022-08-21T06:48:51;0.00;;;0.00;;
21260;SDS011;10788;47.930;9.766;2022-08-21T06:51:16;0.00;;;0.00;;
21260;SDS011;10788;47.930;9.766;2022-08-21T06:53:42;0.00;;;0.00;;
21260;SDS011;10788;47.930;9.766;2022-08-21T06:56:08;0.00;;;0.00;;
21260;SDS011;10788;47.930;9.766;2022-08-21T06:58:34;0.00;;;0.00;;
21260;SDS011;10788;47.930;9.766;2022-08-21T07:00:59;0.00;;;0.00;;
21260;SDS011;10788;47.930;9.766;2022-08-21T07:03:32;0.00;;;0.00;;
21260;SDS011;10788;47.930;9.766;2022-08-21T07:06:04;0.03;;;0.03;;
21260;SDS011;10788;47.930;9.766;2022-08-21T07:08:31;0.00;;;0.00;;
21260;SDS011;10788;47.930;9.766;2022-08-21T07:10:58;0.00;;;0.00;;
21260;SDS011;10788;47.930;9.766;2022-08-21T07:13:25;0.10;;;0.10;;
21260;SDS011;10788;47.930;9.766;2022-08-21T07:15:51;0.00;;;0.00;;
21260;SDS011;10788;47.930;9.766;2022-08-21T07:18:17;0.00;;;0.00;;
21260;SDS011;10788;47.930;9.766;2022-08-21T07:20:43;0.07;;;0.07;;
21260;SDS011;10788;47.930;9.766;2022-08-21T07:23:15;0.03;;;0.03;;
21260;SDS011;10788;47.930;9.766;2022-08-21T07:25:54;0.00;;;0.00;;
21260;SDS011;10788;47.930;9.766;2022-08-21T07:28:20;0.00;;;0.00;;
21260;SDS011;10788;47.930;9.766;2022-08-21T07:30:46;0.10;;;0.10;;
21260;SDS011;10788;47.930;9.766;2022-08-21T07:33:16;0.00;;;0.00;;
21260;SDS011;10788;47.930;9.766;2022-08-21T07:35:42;0.00;;;0.00;;
21260;SDS011;10788;47.930;9.766;2022-08-21T07:38:07;0.10;;;0.10;;
21260;SDS011;10788;47.930;9.766;2022-08-21T07:40:33;0.10;;;0.10;;
21260;SDS011;10788;47.930;9.766;2022-08-21T07:42:59;0.00;;;0.00;;
21260;SDS011;10788;47.930;9.766;2022-08-21T07:45:25;0.00;;;0.00;;
21260;SDS011;10788;47.930;9.766;2022-08-21T07:47:51;0.00;;;0.00;;
21260;SDS011;10788;47.930;9.766;2022-08-21T07:50:17;0.00;;;0.00;;
21260;SDS011;10788;47.930;9.766;2022-08-21T07:52:44;0.00;;;0.00;;
21260;SDS011;10788;47.930;9.766;2022-08-21T07:55:12;0.03;;;0.03;;
21260;SDS011;10788;47.930;9.766;2022-08-21T07:57:39;0.03;;;0.03;;
21260;SDS011;10788;47.930;9.766;2022-08-21T08:00:09;0.00;;;0.00;;
21260;SDS011;10788;47.930;9.766;2022-08-21T08:02:37;0.00;;;0.00;;
21260;SDS011;10788;47.930;9.766;2022-08-21T08:05:04;0.00;;;0.00;;
21260;SDS011;10788;47.930;9.766;2022-08-21T08:07:32;0.00;;;0.00;;
21260;SDS011;10788;47.930;9.766;2022-08-21T08:09:59;0.00;;;0.00;;
21260;SDS011;10788;47.930;9.766;2022-08-21T08:12:25;0.10;;;0.10;;
21260;SDS011;10788;47.930;9.766;2022-08-21T08:14:54;0.03;;;0.03;;
21260;SDS011;10788;47.930;9.766;2022-08-21T08:17:23;0.10;;;0.10;;
21260;SDS011;10788;47.930;9.766;2022-08-21T08:19:50;0.10;;;0.10;;
21260;SDS011;10788;47.930;9.766;2022-08-21T08:22:16;0.10;;;0.10;;
21260;SDS011;10788;47.930;9.766;2022-08-21T08:24:48;0.00;;;0.00;;
21260;SDS011;10788;47.930;9.766;2022-08-21T08:27:15;0.10;;;0.10;;
21260;SDS011;10788;47.930;9.766;2022-08-21T08:29:41;0.00;;;0.00;;
21260;SDS011;10788;47.930;9.766;2022-08-21T08:32:07;0.10;;;0.10;;
21260;SDS011;10788;47.930;9.766;2022-08-21T08:34:34;0.10;;;0.10;;
21260;SDS011;10788;47.930;9.766;2022-08-21T08:37:00;0.10;;;0.10;;
21260;SDS011;10788;47.930;9.766;2022-08-21T08:39:26;0.10;;;0.10;;
21260;SDS011;10788;47.930;9.766;2022-08-21T08:41:55;0.00;;;0.00;;
21260;SDS011;10788;47.930;9.766;2022-08-21T08:44:26;0.10;;;0.10;;
21260;SDS011;10788;47.930;9.766;2022-08-21T08:46:52;0.10;;;0.10;;
21260;SDS011;10788;47.930;9.766;2022-08-21T08:52:10;0.10;;;0.10;;
21260;SDS011;10788;47.930;9.766;2022-08-21T08:54:46;0.10;;;0.10;;
21260;SDS011;10788;47.930;9.766;2022-08-21T08:57:18;0.10;;;0.10;;
21260;SDS011;10788;47.930;9.766;2022-08-21T08:59:51;0.10;;;0.10;;
21260;SDS011;10788;47.930;9.766;2022-08-21T09:02:20;0.10;;;0.10;;
21260;SDS011;10788;47.930;9.766;2022-08-21T09:04:48;0.20;;;0.20;;
21260;SDS011;10788;47.930;9.766;2022-08-21T09:10:30;0.20;;;0.20;;
21260;SDS011;10788;47.930;9.766;2022-08-21T09:29:36;0.10;;;0.10;;
21260;SDS011;10788;47.930;9.766;2022-08-21T09:32:08;0.10;;;0.10;;
21260;SDS011;10788;47.930;9.766;2022-08-21T09:34:55;0.10;;;0.10;;
21260;SDS011;10788;47.930;9.766;2022-08-21T09:37:35;0.10;;;0.10;;
21260;SDS011;10788;47.930;9.766;2022-08-21T09:40:26;0.17;;;0.17;;
21260;SDS011;10788;47.930;9.766;2022-08-21T09:42:56;0.10;;;0.10;;
21260;SDS011;10788;47.930;9.766;2022-08-21T09:45:24;0.10;;;0.10;;
21260;SDS011;10788;47.930;9.766;2022-08-21T09:47:50;0.10;;;0.10;;
21260;SDS011;10788;47.930;9.766;2022-08-21T09:50:18;0.10;;;0.10;;
21260;SDS011;10788;47.930;9.766;2022-08-21T09:52:51;0.10;;;0.10;;
21260;SDS011;10788;47.930;9.766;2022-08-21T09:55:27;0.10;;;0.10;;
21260;SDS011;10788;47.930;9.766;2022-08-21T09:58:14;0.10;;;0.10;;
21260;SDS011;10788;47.930;9.766;2022-08-21T10:00:40;0.10;;;0.10;;
21260;SDS011;10788;47.930;9.766;2022-08-21T10:03:08;0.20;;;0.20;;
21260;SDS011;10788;47.930;9.766;2022-08-21T10:08:23;0.17;;;0.17;;
21260;SDS011;10788;47.930;9.766;2022-08-21T10:10:51;0.20;;;0.20;;
21260;SDS011;10788;47.930;9.766;2022-08-21T10:16:30;0.20;;;0.20;;
21260;SDS011;10788;47.930;9.766;2022-08-21T10:19:13;0.20;;;0.20;;
21260;SDS011;10788;47.930;9.766;2022-08-21T10:25:08;0.20;;;0.20;;
21260;SDS011;10788;47.930;9.766;2022-08-21T10:27:58;0.20;;;0.20;;
21260;SDS011;10788;47.930;9.766;2022-08-21T10:35:23;0.20;;;0.20;;
21260;SDS011;10788;47.930;9.766;2022-08-21T10:40:42;0.30;;;0.30;;
21260;SDS011;10788;47.930;9.766;2022-08-21T10:46:12;0.20;;;0.20;;
21260;SDS011;10788;47.930;9.766;2022-08-21T10:48:57;0.20;;;0.20;;
21260;SDS011;10788;47.930;9.766;2022-08-21T10:51:33;0.20;;;0.20;;
21260;SDS011;10788;47.930;9.766;2022-08-21T10:57:02;0.20;;;0.20;;
21260;SDS011;10788;47.930;9.766;2022-08-21T10:59:47;0.20;;;0.20;;
21260;SDS011;10788;47.930;9.766;2022-08-21T11:02:27;0.20;;;0.20;;
21260;SDS011;10788;47.930;9.766;2022-08-21T11:05:02;0.20;;;0.20;;
21260;SDS011;10788;47.930;9.766;2022-08-21T11:10:10;0.20;;;0.20;;
21260;SDS011;10788;47.930;9.766;2022-08-21T11:12:50;0.20;;;0.20;;
21260;SDS011;10788;47.930;9.766;2022-08-21T11:15:47;0.20;;;0.20;;
21260;SDS011;10788;47.930;9.766;2022-08-21T11:18:34;0.27;;;0.27;;
21260;SDS011;10788;47.930;9.766;2022-08-21T11:29:08;0.30;;;0.30;;
21260;SDS011;10788;47.930;9.766;2022-08-21T11:37:17;0.30;;;0.30;;
21260;SDS011;10788;47.930;9.766;2022-08-21T11:39:59;0.20;;;0.20;;
21260;SDS011;10788;47.930;9.766;2022-08-21T11:42:38;0.20;;;0.20;;
21260;SDS011;10788;47.930;9.766;2022-08-21T11:45:33;0.20;;;0.20;;
21260;SDS011;10788;47.930;9.766;2022-08-21T11:50:51;0.20;;;0.20;;
21260;SDS011;10788;47.930;9.766;2022-08-21T11:55:49;0.20;;;0.20;;
21260;SDS011;10788;47.930;9.766;2022-08-21T11:58:45;0.20;;;0.20;;
21260;SDS011;10788;47.930;9.766;2022-08-21T12:01:30;0.20;;;0.20;;
21260;SDS011;10788;47.930;9.766;2022-08-21T12:04:07;0.20;;;0.20;;
21260;SDS011;10788;47.930;9.766;2022-08-21T12:06:54;0.30;;;0.30;;
21260;SDS011;10788;47.930;9.766;2022-08-21T12:12:12;0.20;;;0.20;;
21260;SDS011;10788;47.930;9.766;2022-08-21T12:14:48;0.30;;;0.30;;
21260;SDS011;10788;47.930;9.766;2022-08-21T12:17:22;0.20;;;0.20;;
21260;SDS011;10788;47.930;9.766;2022-08-21T12:19:58;0.30;;;0.30;;
21260;SDS011;10788;47.930;9.766;2022-08-21T12:22:41;0.10;;;0.10;;
21260;SDS011;10788;47.930;9.766;2022-08-21T12:25:35;0.17;;;0.17;;
21260;SDS011;10788;47.930;9.766;2022-08-21T12:28:27;0.20;;;0.20;;
21260;SDS011;10788;47.930;9.766;2022-08-21T12:30:56;0.20;;;0.20;;
21260;SDS011;10788;47.930;9.766;2022-08-21T12:38:44;0.20;;;0.20;;
21260;SDS011;10788;47.930;9.766;2022-08-21T12:41:21;0.17;;;0.17;;
21260;SDS011;10788;47.930;9.766;2022-08-21T12:46:38;0.20;;;0.20;;
21260;SDS011;10788;47.930;9.766;2022-08-21T12:49:26;0.10;;;0.10;;
21260;SDS011;10788;47.930;9.766;2022-08-21T12:52:21;0.20;;;0.20;;
21260;SDS011;10788;47.930;9.766;2022-08-21T12:54:54;0.20;;;0.20;;
21260;SDS011;10788;47.930;9.766;2022-08-21T12:57:24;0.27;;;0.27;;
21260;SDS011;10788;47.930;9.766;2022-08-21T12:59:52;0.20;;;0.20;;
21260;SDS011;10788;47.930;9.766;2022-08-21T13:02:24;0.20;;;0.20;;
21260;SDS011;10788;47.930;9.766;2022-08-21T13:04:57;0.20;;;0.20;;
21260;SDS011;10788;47.930;9.766;2022-08-21T13:07:28;0.20;;;0.20;;
21260;SDS011;10788;47.930;9.766;2022-08-21T13:10:00;0.20;;;0.20;;
21260;SDS011;10788;47.930;9.766;2022-08-21T13:12:41;0.20;;;0.20;;
21260;SDS011;10788;47.930;9.766;2022-08-21T13:15:07;0.20;;;0.20;;
21260;SDS011;10788;47.930;9.766;2022-08-21T13:17:35;0.10;;;0.10;;
21260;SDS011;10788;47.930;9.766;2022-08-21T13:20:05;0.10;;;0.10;;
21260;SDS011;10788;47.930;9.766;2022-08-21T13:22:52;0.20;;;0.20;;
21260;SDS011;10788;47.930;9.766;2022-08-21T13:25:19;0.20;;;0.20;;
21260;SDS011;10788;47.930;9.766;2022-08-21T13:30:43;0.10;;;0.10;;
21260;SDS011;10788;47.930;9.766;2022-08-21T13:33:13;0.20;;;0.20;;
21260;SDS011;10788;47.930;9.766;2022-08-21T13:38:50;0.20;;;0.20;;
21260;SDS011;10788;47.930;9.766;2022-08-21T13:41:24;0.20;;;0.20;;
21260;SDS011;10788;47.930;9.766;2022-08-21T13:44:02;0.20;;;0.20;;
21260;SDS011;10788;47.930;9.766;2022-08-21T13:46:39;0.20;;;0.20;;
21260;SDS011;10788;47.930;9.766;2022-08-21T13:49:05;0.20;;;0.20;;
21260;SDS011;10788;47.930;9.766;2022-08-21T13:51:33;0.27;;;0.27;;
21260;SDS011;10788;47.930;9.766;2022-08-21T13:53:59;0.10;;;0.10;;
21260;SDS011;10788;47.930;9.766;2022-08-21T13:56:46;0.20;;;0.20;;
21260;SDS011;10788;47.930;9.766;2022-08-21T13:59:12;0.20;;;0.20;;
21260;SDS011;10788;47.930;9.766;2022-08-21T14:01:51;0.27;;;0.27;;
21260;SDS011;10788;47.930;9.766;2022-08-21T14:04:39;0.30;;;0.30;;
21260;SDS011;10788;47.930;9.766;2022-08-21T14:07:18;0.20;;;0.20;;
21260;SDS011;10788;47.930;9.766;2022-08-21T14:09:52;0.20;;;0.20;;
21260;SDS011;10788;47.930;9.766;2022-08-21T14:12:29;0.30;;;0.30;;
21260;SDS011;10788;47.930;9.766;2022-08-21T14:15:07;0.10;;;0.10;;
21260;SDS011;10788;47.930;9.766;2022-08-21T14:17:36;0.27;;;0.27;;
21260;SDS011;10788;47.930;9.766;2022-08-21T14:20:05;0.20;;;0.20;;
21260;SDS011;10788;47.930;9.766;2022-08-21T14:27:38;0.20;;;0.20;;
21260;SDS011;10788;47.930;9.766;2022-08-21T14:30:39;0.20;;;0.20;;
21260;SDS011;10788;47.930;9.766;2022-08-21T14:33:10;0.20;;;0.20;;
21260;SDS011;10788;47.930;9.766;2022-08-21T14:35:37;0.20;;;0.20;;
21260;SDS011;10788;47.930;9.766;2022-08-21T14:38:11;0.27;;;0.27;;
21260;SDS011;10788;47.930;9.766;2022-08-21T14:40:41;0.20;;;0.20;;
21260;SDS011;10788;47.930;9.766;2022-08-21T14:43:08;0.20;;;0.20;;
21260;SDS011;10788;47.930;9.766;2022-08-21T14:45:34;0.20;;;0.20;;
21260;SDS011;10788;47.930;9.766;2022-08-21T14:48:02;0.20;;;0.20;;
21260;SDS011;10788;47.930;9.766;2022-08-21T14:50:28;0.20;;;0.20;;
21260;SDS011;10788;47.930;9.766;2022-08-21T14:52:54;0.30;;;0.30;;
21260;SDS011;10788;47.930;9.766;2022-08-21T14:55:20;0.30;;;0.30;;
21260;SDS011;10788;47.930;9.766;2022-08-21T14:57:47;0.30;;;0.30;;
21260;SDS011;10788;47.930;9.766;2022-08-21T15:00:16;0.20;;;0.20;;
21260;SDS011;10788;47.930;9.766;2022-08-21T15:02:44;0.20;;;0.20;;
21260;SDS011;10788;47.930;9.766;2022-08-21T15:05:10;0.20;;;0.20;;
21260;SDS011;10788;47.930;9.766;2022-08-21T15:07:36;0.20;;;0.20;;
21260;SDS011;10788;47.930;9.766;2022-08-21T15:10:03;0.20;;;0.20;;
21260;SDS011;10788;47.930;9.766;2022-08-21T15:12:30;0.20;;;0.20;;
21260;SDS011;10788;47.930;9.766;2022-08-21T15:14:56;0.30;;;0.30;;
21260;SDS011;10788;47.930;9.766;2022-08-21T15:17:22;0.30;;;0.30;;
21260;SDS011;10788;47.930;9.766;2022-08-21T15:19:47;0.20;;;0.20;;
21260;SDS011;10788;47.930;9.766;2022-08-21T15:22:13;0.30;;;0.30;;
21260;SDS011;10788;47.930;9.766;2022-08-21T15:24:39;0.30;;;0.30;;
21260;SDS011;10788;47.930;9.766;2022-08-21T15:27:06;0.20;;;0.20;;
21260;SDS011;10788;47.930;9.766;2022-08-21T15:29:33;0.30;;;0.30;;
21260;SDS011;10788;47.930;9.766;2022-08-21T15:32:00;0.20;;;0.20;;
21260;SDS011;10788;47.930;9.766;2022-08-21T15:34:47;0.30;;;0.30;;
21260;SDS011;10788;47.930;9.766;2022-08-21T15:37:13;0.20;;;0.20;;
21260;SDS011;10788;47.930;9.766;2022-08-21T15:39:39;0.30;;;0.30;;
21260;SDS011;10788;47.930;9.766;2022-08-21T15:42:04;0.20;;;0.20;;
21260;SDS011;10788;47.930;9.766;2022-08-21T15:44:31;0.20;;;0.20;;
21260;SDS011;10788;47.930;9.766;2022-08-21T15:46:56;0.20;;;0.20;;
21260;SDS011;10788;47.930;9.766;2022-08-21T15:49:23;0.20;;;0.20;;
21260;SDS011;10788;47.930;9.766;2022-08-21T15:51:49;0.10;;;0.10;;
21260;SDS011;10788;47.930;9.766;2022-08-21T15:54:15;0.10;;;0.10;;
21260;SDS011;10788;47.930;9.766;2022-08-21T15:56:40;0.20;;;0.20;;
21260;SDS011;10788;47.930;9.766;2022-08-21T15:59:18;0.20;;;0.20;;
21260;SDS011;10788;47.930;9.766;2022-08-21T16:01:47;0.20;;;0.20;;
21260;SDS011;10788;47.930;9.766;2022-08-21T16:04:23;0.20;;;0.20;;
21260;SDS011;10788;47.930;9.766;2022-08-21T16:06:51;0.20;;;0.20;;
21260;SDS011;10788;47.930;9.766;2022-08-21T16:09:18;0.20;;;0.20;;
21260;SDS011;10788;47.930;9.766;2022-08-21T16:11:45;0.20;;;0.20;;
21260;SDS011;10788;47.930;9.766;2022-08-21T16:14:12;0.20;;;0.20;;
21260;SDS011;10788;47.930;9.766;2022-08-21T16:16:39;0.10;;;0.10;;
21260;SDS011;10788;47.930;9.766;2022-08-21T16:19:05;0.20;;;0.20;;
21260;SDS011;10788;47.930;9.766;2022-08-21T16:21:32;0.20;;;0.20;;
21260;SDS011;10788;47.930;9.766;2022-08-21T16:23:58;0.17;;;0.17;;
21260;SDS011;10788;47.930;9.766;2022-08-21T16:26:24;0.17;;;0.17;;
21260;SDS011;10788;47.930;9.766;2022-08-21T16:28:51;0.20;;;0.20;;
21260;SDS011;10788;47.930;9.766;2022-08-21T16:31:19;0.17;;;0.17;;
21260;SDS011;10788;47.930;9.766;2022-08-21T16:33:45;0.10;;;0.10;;